Nearby METAR* Reports

*"METAR [Météorologique Aviation Régulière] is the international standard code format for hourly surface weather observations which is analogous to the SA coding currently used in the US. The acronym roughly translates from French as Aviation Routine Weather Report." (Source: http://gosic.org/wdcmet/us-metar-faq-taf)

 

KTEB - Teterboro, New Jersey, USA
Distance from station: ENE 2mi, 3km
Updated: 10/15/2018 6:51pm
Light rain, Overcast
Light rain, Overcast
 Wind from SSW
Wind: SSW 12 mph , 19 km/h
Temperature: 66°F , 19°C
Dew Point: 63°F , 17°C
Humidity: 88%
Barometer: 29.88 inHg , 1011.9 hPa
Summary: Light rain
Clouds: Overcast
Visibility: 8 miles , 13 km
Cloud details: Overcast 1500 ft
2018/10/15 22:51 KTEB 152251Z 21010KT 8SM -RA OVC015 19/17 A2988 RMK AO2 DZE23RAB23 SLP117 P0000 T01890172
KNYC - Nyc/Central Park, New York, USA
Distance from station: SE 8mi, 13km
Updated: 10/15/2018 6:51pm
Overcast
Overcast
 
Temperature: 66°F , 19°C
Dew Point: 63°F , 17°C
Humidity: 88%
Barometer: 29.91 inHg , 1012.9 hPa
Clouds: Overcast
Visibility: 10 miles , 16 km
Cloud details: Mostly cloudy 1200 ft
Overcast 1800 ft
2018/10/15 22:51 KNYC 152251Z AUTO 10SM BKN012 OVC018 19/17 A2991 RMK AO2 SLP121 T01890167 $
KCDW - Caldwell, New Jersey, USA
Distance from station: W 11mi, 17km
Updated: 10/15/2018 6:53pm
Overcast
Overcast
 Wind from varies
Wind: varies 5 mph , 7 km/h
Temperature: 64°F , 18°C
Dew Point: 63°F , 17°C
Humidity: 94%
Barometer: 29.89 inHg , 1012.2 hPa
Clouds: Overcast
Visibility: 10 miles , 16 km
Cloud details: Overcast 1500 ft
2018/10/15 22:53 KCDW 152253Z VRB04KT 10SM OVC015 18/17 A2989 RMK AO2 SLP125 T01780172
 
KLGA - Nyc/La Guardia, New York, USA
Distance from station: ESE 12mi, 19km
Updated: 10/15/2018 6:51pm
Overcast
Overcast
 Wind from SSW
Wind: SSW 13 mph , 20 km/h
Temperature: 66°F , 19°C
Dew Point: 61°F , 16°C
Humidity: 83%
Barometer: 29.88 inHg , 1011.9 hPa
Clouds: Overcast
Visibility: 10 miles , 16 km
Cloud details: Overcast 1500 ft
2018/10/15 22:51 KLGA 152251Z 20011KT 10SM OVC015 19/16 A2988 RMK AO2 SLP119 T01940161 $
KEWR - Newark, New Jersey, USA
Distance from station: SSW 13mi, 20km
Updated: 10/15/2018 6:51pm
Overcast
Overcast
 Wind from SSW
Wind: SSW 13 mph , 20 km/h, Gust: 22 mph , 35 km/h
Temperature: 66°F , 19°C
Dew Point: 63°F , 17°C
Humidity: 88%
Barometer: 29.89 inHg , 1012.2 hPa
Clouds: Overcast
Visibility: 10 miles , 16 km
Cloud details: Overcast 1400 ft
2018/10/15 22:51 KEWR 152251Z 20011G19KT 10SM OVC014 19/17 A2989 RMK AO2 SLP119 T01890172 $
KMMU - Morristown Muni, New Jersey, USA
Distance from station: WSW 18mi, 29km
Updated: 10/15/2018 6:45pm
Mist, Overcast
Mist, Overcast
 Wind from SW
Wind: SW 8 mph , 13 km/h
Temperature: 64°F , 18°C
Dew Point: 63°F , 17°C
Humidity: 94%
Barometer: 29.89 inHg , 1012.2 hPa
Summary: Mist
Clouds: Overcast
Visibility: 7 miles , 11 km
Cloud details: Mostly cloudy 1000 ft
Overcast 1200 ft
2018/10/15 22:45 KMMU 152245Z 22007KT 7SM BR BKN010 OVC012 18/17 A2989
 
KLDJ - Linden, New Jersey, USA
Distance from station: SSW 19mi, 30km
Updated: 10/15/2018 6:55pm
Overcast
Overcast
 Wind from calm
Wind: Calm
Temperature: 66°F , 19°C
Dew Point: 63°F , 17°C
Humidity: 88%
Barometer: 29.89 inHg , 1012.2 hPa
Clouds: Overcast
Visibility: 10 miles , 16 km
Cloud details: Overcast 1400 ft
2018/10/15 22:55 KLDJ 152255Z AUTO 00000KT 10SM OVC014 19/17 A2989 RMK AO2 T01870165
KJFK - Nyc/Jfk Arpt, New York, USA
Distance from station: SE 23mi, 36km
Updated: 10/15/2018 6:51pm
Mostly cloudy
Mostly cloudy
 Wind from SSW
Wind: SSW 10 mph , 17 km/h
Temperature: 66°F , 19°C
Dew Point: 66°F , 19°C
Humidity: 100%
Barometer: 29.91 inHg , 1012.9 hPa
Clouds: Mostly cloudy
Visibility: 10 miles , 16 km
Cloud details: Mostly cloudy 1500 ft
Mostly cloudy 11000 ft
Mostly cloudy 13000 ft
Mostly cloudy 20000 ft
2018/10/15 22:51 KJFK 152251Z 21009KT 10SM BKN015 BKN110 BKN130 BKN200 19/19 A2991 RMK AO2 SLP128 T01890189 $
KHPN - White Plains, New York, USA
Distance from station: NE 25mi, 40km
Updated: 10/15/2018 6:56pm
Overcast
Overcast
 Wind from SSW
Wind: SSW 8 mph , 13 km/h
Temperature: 64°F , 18°C
Dew Point: 61°F , 16°C
Humidity: 88%
Barometer: 29.88 inHg , 1011.9 hPa
Clouds: Overcast
Visibility: 10 miles , 16 km
Cloud details: Mostly cloudy 900 ft
Overcast 1200 ft
2018/10/15 22:56 KHPN 152256Z 20007KT 10SM BKN009 OVC012 18/16 A2988 RMK AO2 RAB12E44 SLP116 P0000 T01780156
 
KSMQ - Somerville, New Jersey, USA
Distance from station: WSW 35mi, 56km
Updated: 10/15/2018 6:53pm
Overcast
Overcast
 Wind from S
Wind: S 5 mph , 7 km/h
Temperature: 64°F , 18°C
Dew Point: 63°F , 17°C
Humidity: 94%
Barometer: 29.88 inHg , 1011.9 hPa
Clouds: Overcast
Visibility: 9 miles , 14 km
Cloud details: Mostly cloudy 1500 ft
Overcast 4900 ft
2018/10/15 22:53 KSMQ 152253Z AUTO 19004KT 9SM BKN015 OVC049 18/17 A2988 RMK AO2 SLP119 T01780167
K12N - Andover, New Jersey, USA
Distance from station: WNW 36mi, 57km
Updated: 10/15/2018 6:54pm

 Wind from SSW
Wind: SSW 8 mph , 13 km/h
Temperature: 63°F , 17°C
Dew Point: 59°F , 15°C
Humidity: 88%
Barometer: 29.89 inHg , 1012.2 hPa
2018/10/15 22:54 K12N 152254Z AUTO 21007KT 17/15 A2989 RMK AO1 SLP120 T01720150
KFRG - Farmingdale, New York, USA
Distance from station: ESE 36mi, 58km
Updated: 10/15/2018 6:53pm
Mostly cloudy
Mostly cloudy
 Wind from SW
Wind: SW 10 mph , 17 km/h
Temperature: 64°F , 18°C
Dew Point: 63°F , 17°C
Humidity: 94%
Barometer: 29.90 inHg , 1012.5 hPa
Clouds: Mostly cloudy
Visibility: 10 miles , 16 km
Cloud details: Mostly cloudy 1200 ft
2018/10/15 22:53 KFRG 152253Z 23009KT 10SM BKN012 18/17 A2990 RMK AO2 SLP125 T01830172
 
KFWN - Sussex, New Jersey, USA
Distance from station: NW 37mi, 60km
Updated: 10/15/2018 6:53pm
Overcast
Overcast
 Wind from SW
Wind: SW 7 mph , 11 km/h
Temperature: 63°F , 17°C
Dew Point: 61°F , 16°C
Humidity: 94%
Barometer: 29.86 inHg , 1011.2 hPa
Clouds: Overcast
Visibility: 10 miles , 16 km
Cloud details: Overcast 1200 ft
2018/10/15 22:53 KFWN 152253Z AUTO 22006KT 10SM OVC012 17/16 A2986 RMK AO2 SLP111 T01720161
KSWF - Newburgh/Stewart, New York, USA
Distance from station: 0 44mi, 72km
Updated: 10/15/2018 6:45pm
Overcast
Overcast
 Wind from SW
Wind: SW 8 mph , 13 km/h
Temperature: 63°F , 17°C
Dew Point: 63°F , 17°C
Humidity: 100%
Barometer: 29.85 inHg , 1010.8 hPa
Clouds: Overcast
Visibility: 10 miles , 16 km
Cloud details: Overcast 1700 ft
2018/10/15 22:45 KSWF 152245Z 23007KT 10SM OVC017 17/17 A2985
KMGJ - Montgomery, New York, USA
Distance from station: NNW 47mi, 75km
Updated: 10/15/2018 6:54pm
Light rain, Overcast
Light rain, Overcast
 Wind from SSW
Wind: SSW 15 mph , 24 km/h
Temperature: 63°F , 17°C
Dew Point: 61°F , 16°C
Humidity: 94%
Barometer: 29.82 inHg , 1009.8 hPa
Summary: Light rain
Clouds: Overcast
Visibility: 10 miles , 16 km
Cloud details: Mostly cloudy 1500 ft
Overcast 2000 ft
2018/10/15 22:54 KMGJ 152254Z AUTO 21013KT 10SM -RA BKN015 OVC020 17/16 A2982 RMK AO2 RAB41 SLP100 P0000 T01720156 $
 
KDXR - Danbury, Connecticut, USA
Distance from station: NE 47mi, 76km
Updated: 10/15/2018 6:53pm
Overcast
Overcast
 Wind from SSW
Wind: SSW 13 mph , 20 km/h
Temperature: 63°F , 17°C
Dew Point: 61°F , 16°C
Humidity: 94%
Barometer: 29.87 inHg , 1011.5 hPa
Clouds: Overcast
Visibility: 9 miles , 14 km
Cloud details: Overcast 1500 ft
2018/10/15 22:53 KDXR 152253Z 20011KT 9SM OVC015 17/16 A2987 RMK AO2 SLP114 T01670156
KBLM - Belmar/Farmdale, New Jersey, USA
Distance from station: S 48mi, 77km
Updated: 10/15/2018 6:56pm
Clear
Clear
 Wind from SSW
Wind: SSW 15 mph , 24 km/h, Gust: 20 mph , 31 km/h
Temperature: 68°F , 20°C
Dew Point: 64°F , 18°C
Humidity: 88%
Barometer: 29.93 inHg , 1013.5 hPa
Clouds: Clear
Visibility: 10 miles , 16 km
2018/10/15 22:56 KBLM 152256Z AUTO 20013G17KT 10SM CLR 20/18 A2993 RMK AO2 SLP139 T02000178